Strona główna
METAR-TAF:

METAR-TAF

Lotnisko :

Port lotniczy Biak-Frans Kaisiepo

Biak, Indonezja

Szerokość geograficzna: 01-11S, Długość geograficzna: 136-07E, wysokość: 11 m

METAR: brakujący

czas: 16:31 (09:31 UTC)

Prognoza

Raport powstał 4 godziny i 31 minut temu, godzina 05:00 UTC
Prognoza ważna od 04 godzina 06 UTC do 05 godzina 12 UTC
Wiatr 8 kt od zachód
Widzialność 10 km lub więcej
Rozproszone chmury na wysokości 1800 ft
Stopniowe zmiany
od 04 godzina 15 UTC do 04 godzina 17 UTC
Wiatr kt od północ

TAF: WABB 040500Z 0406/0512 28008KT 9999 SCT018 BECMG 0415/0417 00000KT

Obserwacja i prognoza pogody dla ponad 4000 lotnisk (raport METAR i TAF).

Dostępne stacje oznaczono żółtymi i czerwonymi punktami na mapie.

Najedź kursorem aby zobaczyć nazwę stacji.

Kliknij aby zobaczyć obserwacje i prognozy pogody.

Aby zmienić mapę: kliknij na zielony przycisk z czarnym krzyżykiem, aby powiększyć; na zielony przycisk z myślnikiem, aby pomniejszyć; na zielone strzałki, aby przejść do map sąsiednich.


METAR-TAF: